map of GAU home
GAU - Airport
Location
City:  Guwahati, Assam, India
Name:Lokpriya Gopinath Bordoloi International Airport
Old (Alt.):Borjhar
ICAO:VEGT
IATA:GAU

Details
Type:Airport (Aerodrome, Airfield)
Use:Public/Civil, International (customs port of entry)
Latitude:26°06'22"N (26.106092)
Longitude:91°35'09"E (91.585939)
Datum:WGS 1984
Elevation:162 ft (49 m)
Variation:0.12°W (WMM2015 magnetic declination)
0.04° annual change
Runways:1
Longest:9000 × 150 ft (2743 × 45.5 m), paved

Time
Time Zone:UTC+5:30
Local Time:

Weather
METAR:VEGT 220400Z 01004KT 2500 BR FEW018 SCT100 20/17 Q1019 NOSIG

Related Locations
Nearby:
Farthest:SCFX: 11930 mi / 19199 km
Isla San Félix, Desventuradas Islands, VS, CL

Find:

   beyond  
but within

Other Information
Maps:
NOTAMs:
Links:
Sources:

  
  • flag of India
  

Sectional Chart

Flight Planning
at skyvector.com

Satellite Image

Google Maps Satellite view

 

Copyright © 2004-2019 Karl L. Swartz. All rights reserved.
The Great Circle Mapper name and logo are trademarks of the Great Circle Mapper.
All other trademarks mentioned herein belong to their respective owners.
Please see credits for attibutions and further copyright information.

  Follow gcmap on Facebook Follow gcmap on Twitter Follow gcmap on Google+ GCmap on LinkedIn

hCard Microformat

Geo Microformat